sensor_id;sensor_type;location;lat;lon;timestamp;temperature;humidity
23556;DHT22;11956;53.184;8.578;2022-07-06T00:01:10;15.30;99.90
23556;DHT22;11956;53.184;8.578;2022-07-06T00:04:11;15.30;99.90
23556;DHT22;11956;53.184;8.578;2022-07-06T00:07:12;15.30;99.90
23556;DHT22;11956;53.184;8.578;2022-07-06T00:10:14;15.30;99.90
23556;DHT22;11956;53.184;8.578;2022-07-06T00:13:15;15.20;99.90
23556;DHT22;11956;53.184;8.578;2022-07-06T00:16:16;15.20;99.90
23556;DHT22;11956;53.184;8.578;2022-07-06T00:19:17;15.20;99.90
23556;DHT22;11956;53.184;8.578;2022-07-06T00:22:18;15.20;99.90
23556;DHT22;11956;53.184;8.578;2022-07-06T00:25:19;15.20;99.90
23556;DHT22;11956;53.184;8.578;2022-07-06T00:28:21;15.30;99.90
23556;DHT22;11956;53.184;8.578;2022-07-06T00:31:22;15.30;99.90
23556;DHT22;11956;53.184;8.578;2022-07-06T00:34:23;15.30;99.90
23556;DHT22;11956;53.184;8.578;2022-07-06T00:37:24;15.40;99.90
23556;DHT22;11956;53.184;8.578;2022-07-06T00:40:26;15.30;99.90
23556;DHT22;11956;53.184;8.578;2022-07-06T00:43:27;15.30;99.90
23556;DHT22;11956;53.184;8.578;2022-07-06T00:46:31;15.20;99.90
23556;DHT22;11956;53.184;8.578;2022-07-06T00:49:32;15.10;99.90
23556;DHT22;11956;53.184;8.578;2022-07-06T00:53:01;15.10;99.90
23556;DHT22;11956;53.184;8.578;2022-07-06T00:56:06;15.10;99.90
23556;DHT22;11956;53.184;8.578;2022-07-06T00:59:08;15.10;99.90
23556;DHT22;11956;53.184;8.578;2022-07-06T01:02:09;15.20;99.90
23556;DHT22;11956;53.184;8.578;2022-07-06T01:05:11;15.20;99.90
23556;DHT22;11956;53.184;8.578;2022-07-06T01:08:14;15.20;99.90
23556;DHT22;11956;53.184;8.578;2022-07-06T01:11:18;15.20;99.90
23556;DHT22;11956;53.184;8.578;2022-07-06T01:14:20;15.20;99.90
23556;DHT22;11956;53.184;8.578;2022-07-06T01:17:21;15.20;99.90
23556;DHT22;11956;53.184;8.578;2022-07-06T01:20:25;15.10;99.90
23556;DHT22;11956;53.184;8.578;2022-07-06T01:23:27;15.10;99.90
23556;DHT22;11956;53.184;8.578;2022-07-06T01:26:28;15.00;99.90
23556;DHT22;11956;53.184;8.578;2022-07-06T01:29:29;15.00;99.90
23556;DHT22;11956;53.184;8.578;2022-07-06T01:32:30;15.00;99.90
23556;DHT22;11956;53.184;8.578;2022-07-06T01:35:33;15.00;99.90
23556;DHT22;11956;53.184;8.578;2022-07-06T01:38:56;15.00;99.90
23556;DHT22;11956;53.184;8.578;2022-07-06T01:42:00;15.00;99.90
23556;DHT22;11956;53.184;8.578;2022-07-06T01:45:02;14.90;99.90
23556;DHT22;11956;53.184;8.578;2022-07-06T01:48:05;14.90;99.90
23556;DHT22;11956;53.184;8.578;2022-07-06T01:51:08;14.90;99.90
23556;DHT22;11956;53.184;8.578;2022-07-06T01:54:10;14.80;99.90
23556;DHT22;11956;53.184;8.578;2022-07-06T01:57:12;14.90;99.90
23556;DHT22;11956;53.184;8.578;2022-07-06T02:00:14;14.80;99.90
23556;DHT22;11956;53.184;8.578;2022-07-06T02:03:19;14.90;99.90
23556;DHT22;11956;53.184;8.578;2022-07-06T02:06:20;14.90;99.90
23556;DHT22;11956;53.184;8.578;2022-07-06T02:09:22;14.90;99.90
23556;DHT22;11956;53.184;8.578;2022-07-06T02:12:23;14.90;99.90
23556;DHT22;11956;53.184;8.578;2022-07-06T02:15:25;15.00;99.90
23556;DHT22;11956;53.184;8.578;2022-07-06T02:18:27;15.00;99.90
23556;DHT22;11956;53.184;8.578;2022-07-06T02:21:28;15.00;99.90
23556;DHT22;11956;53.184;8.578;2022-07-06T02:24:29;15.00;99.90
23556;DHT22;11956;53.184;8.578;2022-07-06T02:27:30;15.00;99.90
23556;DHT22;11956;53.184;8.578;2022-07-06T02:30:33;15.00;99.90
23556;DHT22;11956;53.184;8.578;2022-07-06T02:33:34;15.00;99.90
23556;DHT22;11956;53.184;8.578;2022-07-06T02:36:35;15.00;99.90
23556;DHT22;11956;53.184;8.578;2022-07-06T02:39:36;15.00;99.90
23556;DHT22;11956;53.184;8.578;2022-07-06T02:42:38;14.90;99.90
23556;DHT22;11956;53.184;8.578;2022-07-06T02:45:41;14.80;99.90
23556;DHT22;11956;53.184;8.578;2022-07-06T02:48:44;14.80;99.90
23556;DHT22;11956;53.184;8.578;2022-07-06T02:51:46;14.80;99.90
23556;DHT22;11956;53.184;8.578;2022-07-06T02:54:47;14.70;99.90
23556;DHT22;11956;53.184;8.578;2022-07-06T02:57:49;14.70;99.90
23556;DHT22;11956;53.184;8.578;2022-07-06T03:00:50;14.70;99.90
23556;DHT22;11956;53.184;8.578;2022-07-06T03:03:53;14.70;99.90
23556;DHT22;11956;53.184;8.578;2022-07-06T03:06:54;14.80;99.90
23556;DHT22;11956;53.184;8.578;2022-07-06T03:09:55;14.80;99.90
23556;DHT22;11956;53.184;8.578;2022-07-06T03:12:56;14.80;99.90
23556;DHT22;11956;53.184;8.578;2022-07-06T03:15:57;14.80;99.90
23556;DHT22;11956;53.184;8.578;2022-07-06T03:18:58;14.80;99.90
23556;DHT22;11956;53.184;8.578;2022-07-06T03:21:59;14.90;99.90
23556;DHT22;11956;53.184;8.578;2022-07-06T03:25:01;14.90;99.90
23556;DHT22;11956;53.184;8.578;2022-07-06T03:28:03;14.90;99.90
23556;DHT22;11956;53.184;8.578;2022-07-06T03:31:05;14.90;99.90
23556;DHT22;11956;53.184;8.578;2022-07-06T03:34:06;15.00;99.90
23556;DHT22;11956;53.184;8.578;2022-07-06T03:37:08;15.00;99.90
23556;DHT22;11956;53.184;8.578;2022-07-06T03:40:12;15.00;99.90
23556;DHT22;11956;53.184;8.578;2022-07-06T03:43:13;15.00;99.90
23556;DHT22;11956;53.184;8.578;2022-07-06T03:46:14;14.90;99.90
23556;DHT22;11956;53.184;8.578;2022-07-06T03:49:15;14.90;99.90
23556;DHT22;11956;53.184;8.578;2022-07-06T03:52:16;14.90;99.90
23556;DHT22;11956;53.184;8.578;2022-07-06T03:55:24;15.00;99.90
23556;DHT22;11956;53.184;8.578;2022-07-06T03:58:32;15.00;99.90
23556;DHT22;11956;53.184;8.578;2022-07-06T04:01:33;15.00;99.90
23556;DHT22;11956;53.184;8.578;2022-07-06T04:04:35;15.00;99.90
23556;DHT22;11956;53.184;8.578;2022-07-06T04:07:36;15.00;99.90
23556;DHT22;11956;53.184;8.578;2022-07-06T04:10:38;15.00;99.90
23556;DHT22;11956;53.184;8.578;2022-07-06T04:13:39;15.00;99.90
23556;DHT22;11956;53.184;8.578;2022-07-06T04:16:41;15.00;99.90
23556;DHT22;11956;53.184;8.578;2022-07-06T04:19:43;15.00;99.90
23556;DHT22;11956;53.184;8.578;2022-07-06T04:22:44;15.00;99.90
23556;DHT22;11956;53.184;8.578;2022-07-06T04:25:45;15.10;99.90
23556;DHT22;11956;53.184;8.578;2022-07-06T04:28:47;15.20;99.90
23556;DHT22;11956;53.184;8.578;2022-07-06T04:31:49;15.20;99.90
23556;DHT22;11956;53.184;8.578;2022-07-06T04:34:50;15.20;99.90
23556;DHT22;11956;53.184;8.578;2022-07-06T04:37:51;15.30;99.90
23556;DHT22;11956;53.184;8.578;2022-07-06T04:40:55;15.20;99.90
23556;DHT22;11956;53.184;8.578;2022-07-06T04:43:56;15.30;99.90
23556;DHT22;11956;53.184;8.578;2022-07-06T04:46:57;15.40;99.90
23556;DHT22;11956;53.184;8.578;2022-07-06T04:49:58;15.40;99.90
23556;DHT22;11956;53.184;8.578;2022-07-06T04:52:59;15.60;99.90
23556;DHT22;11956;53.184;8.578;2022-07-06T04:56:01;15.60;99.90
23556;DHT22;11956;53.184;8.578;2022-07-06T04:59:04;15.70;99.90
23556;DHT22;11956;53.184;8.578;2022-07-06T05:02:05;15.80;99.90
23556;DHT22;11956;53.184;8.578;2022-07-06T05:05:07;15.90;99.90
23556;DHT22;11956;53.184;8.578;2022-07-06T05:08:10;16.00;99.90
23556;DHT22;11956;53.184;8.578;2022-07-06T05:11:12;16.10;99.90
23556;DHT22;11956;53.184;8.578;2022-07-06T05:14:13;16.30;99.90
23556;DHT22;11956;53.184;8.578;2022-07-06T05:17:14;16.50;99.90
23556;DHT22;11956;53.184;8.578;2022-07-06T05:20:16;16.70;99.90
23556;DHT22;11956;53.184;8.578;2022-07-06T05:23:20;16.90;99.90
23556;DHT22;11956;53.184;8.578;2022-07-06T05:26:21;17.10;99.90
23556;DHT22;11956;53.184;8.578;2022-07-06T05:29:23;17.30;99.90
23556;DHT22;11956;53.184;8.578;2022-07-06T05:32:25;17.40;99.90
23556;DHT22;11956;53.184;8.578;2022-07-06T05:35:26;17.40;99.90
23556;DHT22;11956;53.184;8.578;2022-07-06T05:38:28;17.30;99.90
23556;DHT22;11956;53.184;8.578;2022-07-06T05:41:30;17.20;99.90
23556;DHT22;11956;53.184;8.578;2022-07-06T05:44:31;17.10;99.90
23556;DHT22;11956;53.184;8.578;2022-07-06T05:47:32;17.10;99.90
23556;DHT22;11956;53.184;8.578;2022-07-06T05:50:53;17.10;99.90
23556;DHT22;11956;53.184;8.578;2022-07-06T05:53:54;17.00;99.90
23556;DHT22;11956;53.184;8.578;2022-07-06T05:56:56;16.90;99.90
23556;DHT22;11956;53.184;8.578;2022-07-06T05:59:57;16.90;99.90
23556;DHT22;11956;53.184;8.578;2022-07-06T06:03:01;17.10;99.90
23556;DHT22;11956;53.184;8.578;2022-07-06T06:06:02;17.20;99.90
23556;DHT22;11956;53.184;8.578;2022-07-06T06:09:04;17.30;99.90
23556;DHT22;11956;53.184;8.578;2022-07-06T06:12:05;17.50;99.90
23556;DHT22;11956;53.184;8.578;2022-07-06T06:15:07;17.70;99.90
23556;DHT22;11956;53.184;8.578;2022-07-06T06:18:08;17.90;99.90
23556;DHT22;11956;53.184;8.578;2022-07-06T06:21:09;18.10;99.90
23556;DHT22;11956;53.184;8.578;2022-07-06T06:24:11;18.20;99.90
23556;DHT22;11956;53.184;8.578;2022-07-06T06:27:12;18.30;99.90
23556;DHT22;11956;53.184;8.578;2022-07-06T06:30:14;18.20;99.90
23556;DHT22;11956;53.184;8.578;2022-07-06T06:33:20;18.40;99.90
23556;DHT22;11956;53.184;8.578;2022-07-06T06:36:21;19.20;99.90
23556;DHT22;11956;53.184;8.578;2022-07-06T06:39:23;21.10;99.90
23556;DHT22;11956;53.184;8.578;2022-07-06T06:42:24;22.70;99.90
23556;DHT22;11956;53.184;8.578;2022-07-06T06:45:26;23.40;99.90
23556;DHT22;11956;53.184;8.578;2022-07-06T06:48:27;24.00;97.90
23556;DHT22;11956;53.184;8.578;2022-07-06T06:51:28;23.20;98.80
23556;DHT22;11956;53.184;8.578;2022-07-06T06:54:29;21.90;99.90
23556;DHT22;11956;53.184;8.578;2022-07-06T06:57:30;21.80;99.90
23556;DHT22;11956;53.184;8.578;2022-07-06T07:00:32;21.50;99.90
23556;DHT22;11956;53.184;8.578;2022-07-06T07:03:33;21.70;99.90
23556;DHT22;11956;53.184;8.578;2022-07-06T07:06:34;21.60;99.90
23556;DHT22;11956;53.184;8.578;2022-07-06T07:09:35;21.00;99.90
23556;DHT22;11956;53.184;8.578;2022-07-06T07:12:43;20.40;99.90
23556;DHT22;11956;53.184;8.578;2022-07-06T07:15:47;19.90;99.90
23556;DHT22;11956;53.184;8.578;2022-07-06T07:18:48;19.50;99.90
23556;DHT22;11956;53.184;8.578;2022-07-06T07:21:49;19.70;99.90
23556;DHT22;11956;53.184;8.578;2022-07-06T07:24:50;19.70;99.90
23556;DHT22;11956;53.184;8.578;2022-07-06T07:27:51;20.00;99.90
23556;DHT22;11956;53.184;8.578;2022-07-06T07:30:52;20.10;99.90
23556;DHT22;11956;53.184;8.578;2022-07-06T07:33:53;19.60;99.90
23556;DHT22;11956;53.184;8.578;2022-07-06T07:36:57;19.30;99.90
23556;DHT22;11956;53.184;8.578;2022-07-06T07:39:58;18.90;99.90
23556;DHT22;11956;53.184;8.578;2022-07-06T07:42:59;18.80;99.90
23556;DHT22;11956;53.184;8.578;2022-07-06T07:46:01;18.80;99.90
23556;DHT22;11956;53.184;8.578;2022-07-06T07:49:02;18.90;99.90
23556;DHT22;11956;53.184;8.578;2022-07-06T07:52:05;19.30;99.90
23556;DHT22;11956;53.184;8.578;2022-07-06T07:55:06;20.00;99.90
23556;DHT22;11956;53.184;8.578;2022-07-06T07:58:08;20.50;99.90
23556;DHT22;11956;53.184;8.578;2022-07-06T08:01:09;21.00;99.90
23556;DHT22;11956;53.184;8.578;2022-07-06T08:04:11;20.80;99.90
23556;DHT22;11956;53.184;8.578;2022-07-06T08:07:12;20.80;99.90
23556;DHT22;11956;53.184;8.578;2022-07-06T08:10:13;20.90;99.90
23556;DHT22;11956;53.184;8.578;2022-07-06T08:13:14;20.80;99.90
23556;DHT22;11956;53.184;8.578;2022-07-06T08:16:15;20.60;99.90
23556;DHT22;11956;53.184;8.578;2022-07-06T08:19:16;20.50;99.90
23556;DHT22;11956;53.184;8.578;2022-07-06T08:22:18;20.60;99.90
23556;DHT22;11956;53.184;8.578;2022-07-06T08:25:19;21.10;99.90
23556;DHT22;11956;53.184;8.578;2022-07-06T08:28:20;21.30;99.70
23556;DHT22;11956;53.184;8.578;2022-07-06T08:31:21;21.80;98.00
23556;DHT22;11956;53.184;8.578;2022-07-06T08:34:23;21.60;98.00
23556;DHT22;11956;53.184;8.578;2022-07-06T08:37:24;21.80;98.50
23556;DHT22;11956;53.184;8.578;2022-07-06T08:40:29;22.00;97.90
23556;DHT22;11956;53.184;8.578;2022-07-06T08:43:34;21.70;97.80
23556;DHT22;11956;53.184;8.578;2022-07-06T08:46:37;21.30;97.80
23556;DHT22;11956;53.184;8.578;2022-07-06T08:49:40;21.00;98.60
23556;DHT22;11956;53.184;8.578;2022-07-06T08:52:42;21.10;97.80
23556;DHT22;11956;53.184;8.578;2022-07-06T08:55:44;21.10;97.90
23556;DHT22;11956;53.184;8.578;2022-07-06T08:58:44;20.50;98.50
23556;DHT22;11956;53.184;8.578;2022-07-06T09:01:46;20.10;99.90
23556;DHT22;11956;53.184;8.578;2022-07-06T09:04:49;20.20;99.90
23556;DHT22;11956;53.184;8.578;2022-07-06T09:07:52;20.10;99.90
23556;DHT22;11956;53.184;8.578;2022-07-06T09:10:54;20.20;99.90
23556;DHT22;11956;53.184;8.578;2022-07-06T09:13:55;20.00;99.90
23556;DHT22;11956;53.184;8.578;2022-07-06T09:17:04;20.00;99.90
23556;DHT22;11956;53.184;8.578;2022-07-06T09:20:08;20.40;99.90
23556;DHT22;11956;53.184;8.578;2022-07-06T09:23:15;20.70;99.90
23556;DHT22;11956;53.184;8.578;2022-07-06T09:26:18;21.00;99.90
23556;DHT22;11956;53.184;8.578;2022-07-06T09:29:27;21.60;99.90
23556;DHT22;11956;53.184;8.578;2022-07-06T09:32:30;22.20;98.60
23556;DHT22;11956;53.184;8.578;2022-07-06T09:35:36;22.70;97.40
23556;DHT22;11956;53.184;8.578;2022-07-06T09:38:38;22.80;96.00
23556;DHT22;11956;53.184;8.578;2022-07-06T09:41:39;22.80;96.60
23556;DHT22;11956;53.184;8.578;2022-07-06T09:44:41;22.40;97.20
23556;DHT22;11956;53.184;8.578;2022-07-06T09:47:49;23.20;95.90
23556;DHT22;11956;53.184;8.578;2022-07-06T09:50:52;24.00;95.00
23556;DHT22;11956;53.184;8.578;2022-07-06T09:53:58;24.20;94.90
23556;DHT22;11956;53.184;8.578;2022-07-06T09:57:00;24.40;93.50
23556;DHT22;11956;53.184;8.578;2022-07-06T10:00:01;23.70;94.30
23556;DHT22;11956;53.184;8.578;2022-07-06T10:03:14;23.70;94.80
23556;DHT22;11956;53.184;8.578;2022-07-06T10:06:16;23.60;94.20
23556;DHT22;11956;53.184;8.578;2022-07-06T10:09:19;23.30;94.30
23556;DHT22;11956;53.184;8.578;2022-07-06T10:12:22;22.70;95.30
23556;DHT22;11956;53.184;8.578;2022-07-06T10:15:28;22.80;94.90
23556;DHT22;11956;53.184;8.578;2022-07-06T10:18:32;22.20;96.10
23556;DHT22;11956;53.184;8.578;2022-07-06T10:21:36;21.40;97.80
23556;DHT22;11956;53.184;8.578;2022-07-06T10:24:41;20.60;99.90
23556;DHT22;11956;53.184;8.578;2022-07-06T10:27:45;20.10;99.90
23556;DHT22;11956;53.184;8.578;2022-07-06T10:30:47;19.60;99.90
23556;DHT22;11956;53.184;8.578;2022-07-06T10:33:50;19.70;99.90
23556;DHT22;11956;53.184;8.578;2022-07-06T10:36:53;19.80;99.90
23556;DHT22;11956;53.184;8.578;2022-07-06T10:39:55;19.90;99.90
23556;DHT22;11956;53.184;8.578;2022-07-06T10:43:15;20.50;99.90
23556;DHT22;11956;53.184;8.578;2022-07-06T10:46:17;20.60;99.90
23556;DHT22;11956;53.184;8.578;2022-07-06T10:49:20;20.50;99.90
23556;DHT22;11956;53.184;8.578;2022-07-06T10:52:22;20.20;99.90
23556;DHT22;11956;53.184;8.578;2022-07-06T10:55:28;20.10;99.90
23556;DHT22;11956;53.184;8.578;2022-07-06T10:58:47;19.90;99.90
23556;DHT22;11956;53.184;8.578;2022-07-06T11:02:14;19.80;99.90
23556;DHT22;11956;53.184;8.578;2022-07-06T11:05:39;19.80;99.90
23556;DHT22;11956;53.184;8.578;2022-07-06T11:12:18;20.20;99.90
23556;DHT22;11956;53.184;8.578;2022-07-06T11:15:48;20.70;99.90
23556;DHT22;11956;53.184;8.578;2022-07-06T11:18:59;21.40;98.90
23556;DHT22;11956;53.184;8.578;2022-07-06T11:22:09;21.60;98.00
23556;DHT22;11956;53.184;8.578;2022-07-06T11:25:10;22.20;96.70
23556;DHT22;11956;53.184;8.578;2022-07-06T11:28:12;22.40;96.10
23556;DHT22;11956;53.184;8.578;2022-07-06T11:31:15;23.00;95.50
23556;DHT22;11956;53.184;8.578;2022-07-06T11:34:25;23.60;93.60
23556;DHT22;11956;53.184;8.578;2022-07-06T11:37:27;23.60;93.60
23556;DHT22;11956;53.184;8.578;2022-07-06T11:40:28;22.40;95.40
23556;DHT22;11956;53.184;8.578;2022-07-06T11:43:30;22.10;96.00
23556;DHT22;11956;53.184;8.578;2022-07-06T11:46:32;21.90;96.10
23556;DHT22;11956;53.184;8.578;2022-07-06T11:49:36;21.90;95.40
23556;DHT22;11956;53.184;8.578;2022-07-06T11:52:39;21.70;95.90
23556;DHT22;11956;53.184;8.578;2022-07-06T11:55:40;21.70;96.10
23556;DHT22;11956;53.184;8.578;2022-07-06T11:58:41;21.80;95.80
23556;DHT22;11956;53.184;8.578;2022-07-06T12:01:44;22.00;95.70
23556;DHT22;11956;53.184;8.578;2022-07-06T12:04:46;21.80;96.50
23556;DHT22;11956;53.184;8.578;2022-07-06T12:07:47;22.00;96.30
23556;DHT22;11956;53.184;8.578;2022-07-06T12:10:48;22.00;96.50
23556;DHT22;11956;53.184;8.578;2022-07-06T12:13:51;22.30;96.10
23556;DHT22;11956;53.184;8.578;2022-07-06T12:16:52;22.30;96.40
23556;DHT22;11956;53.184;8.578;2022-07-06T12:19:54;22.60;95.30
23556;DHT22;11956;53.184;8.578;2022-07-06T12:23:06;22.40;95.50
23556;DHT22;11956;53.184;8.578;2022-07-06T12:26:08;22.40;96.00
23556;DHT22;11956;53.184;8.578;2022-07-06T12:29:12;22.40;96.80
23556;DHT22;11956;53.184;8.578;2022-07-06T12:32:19;22.00;95.90
23556;DHT22;11956;53.184;8.578;2022-07-06T12:35:23;21.90;96.00
23556;DHT22;11956;53.184;8.578;2022-07-06T12:38:27;22.40;95.30
23556;DHT22;11956;53.184;8.578;2022-07-06T12:41:32;22.70;94.70
23556;DHT22;11956;53.184;8.578;2022-07-06T12:44:44;22.80;93.90
23556;DHT22;11956;53.184;8.578;2022-07-06T12:48:01;22.60;94.10
23556;DHT22;11956;53.184;8.578;2022-07-06T12:51:03;22.30;94.20
23556;DHT22;11956;53.184;8.578;2022-07-06T12:54:15;22.30;94.30
23556;DHT22;11956;53.184;8.578;2022-07-06T12:57:19;22.00;94.90
23556;DHT22;11956;53.184;8.578;2022-07-06T13:00:22;21.80;95.80
23556;DHT22;11956;53.184;8.578;2022-07-06T13:03:24;21.80;96.20
23556;DHT22;11956;53.184;8.578;2022-07-06T13:06:35;21.80;96.10
23556;DHT22;11956;53.184;8.578;2022-07-06T13:09:37;21.90;96.10
23556;DHT22;11956;53.184;8.578;2022-07-06T13:12:39;22.10;94.70
23556;DHT22;11956;53.184;8.578;2022-07-06T13:15:44;22.30;94.60
23556;DHT22;11956;53.184;8.578;2022-07-06T13:18:45;22.40;94.70
23556;DHT22;11956;53.184;8.578;2022-07-06T13:21:46;22.20;94.60
23556;DHT22;11956;53.184;8.578;2022-07-06T13:24:47;22.20;94.10
23556;DHT22;11956;53.184;8.578;2022-07-06T13:27:48;21.80;93.80
23556;DHT22;11956;53.184;8.578;2022-07-06T13:30:49;21.90;93.90
23556;DHT22;11956;53.184;8.578;2022-07-06T13:33:50;22.10;94.10
23556;DHT22;11956;53.184;8.578;2022-07-06T13:36:52;22.00;92.90
23556;DHT22;11956;53.184;8.578;2022-07-06T13:39:54;21.90;92.90
23556;DHT22;11956;53.184;8.578;2022-07-06T13:42:54;21.60;93.50
23556;DHT22;11956;53.184;8.578;2022-07-06T13:45:55;21.80;93.20
23556;DHT22;11956;53.184;8.578;2022-07-06T13:48:57;21.50;92.80
23556;DHT22;11956;53.184;8.578;2022-07-06T13:51:59;21.50;92.20
23556;DHT22;11956;53.184;8.578;2022-07-06T13:55:04;21.40;91.30
23556;DHT22;11956;53.184;8.578;2022-07-06T13:58:06;21.40;91.40
23556;DHT22;11956;53.184;8.578;2022-07-06T14:01:09;21.50;91.30
23556;DHT22;11956;53.184;8.578;2022-07-06T14:04:10;21.70;91.30
23556;DHT22;11956;53.184;8.578;2022-07-06T14:07:11;22.10;91.90
23556;DHT22;11956;53.184;8.578;2022-07-06T14:10:12;22.20;91.80
23556;DHT22;11956;53.184;8.578;2022-07-06T14:13:13;22.40;91.10
23556;DHT22;11956;53.184;8.578;2022-07-06T14:16:14;22.50;90.60
23556;DHT22;11956;53.184;8.578;2022-07-06T14:19:15;22.50;90.40
23556;DHT22;11956;53.184;8.578;2022-07-06T14:22:16;22.50;91.10
23556;DHT22;11956;53.184;8.578;2022-07-06T14:25:17;22.50;91.50
23556;DHT22;11956;53.184;8.578;2022-07-06T14:28:18;22.60;91.10
23556;DHT22;11956;53.184;8.578;2022-07-06T14:31:20;22.50;91.00
23556;DHT22;11956;53.184;8.578;2022-07-06T14:34:21;22.50;90.80
23556;DHT22;11956;53.184;8.578;2022-07-06T14:37:22;22.30;91.10
23556;DHT22;11956;53.184;8.578;2022-07-06T14:40:23;22.20;92.30
23556;DHT22;11956;53.184;8.578;2022-07-06T14:43:24;22.20;92.10
23556;DHT22;11956;53.184;8.578;2022-07-06T14:46:25;22.30;91.70
23556;DHT22;11956;53.184;8.578;2022-07-06T14:49:26;22.10;91.90
23556;DHT22;11956;53.184;8.578;2022-07-06T14:52:28;22.10;92.20
23556;DHT22;11956;53.184;8.578;2022-07-06T14:55:29;21.80;92.90
23556;DHT22;11956;53.184;8.578;2022-07-06T14:58:30;21.70;92.90
23556;DHT22;11956;53.184;8.578;2022-07-06T15:01:31;21.90;93.30
23556;DHT22;11956;53.184;8.578;2022-07-06T15:04:32;22.20;93.00
23556;DHT22;11956;53.184;8.578;2022-07-06T15:07:33;22.50;92.80
23556;DHT22;11956;53.184;8.578;2022-07-06T15:10:35;22.60;93.10
23556;DHT22;11956;53.184;8.578;2022-07-06T15:13:35;22.70;92.70
23556;DHT22;11956;53.184;8.578;2022-07-06T15:16:37;22.80;93.00
23556;DHT22;11956;53.184;8.578;2022-07-06T15:19:38;22.50;93.10
23556;DHT22;11956;53.184;8.578;2022-07-06T15:22:40;22.40;93.00
23556;DHT22;11956;53.184;8.578;2022-07-06T15:25:41;22.30;93.20
23556;DHT22;11956;53.184;8.578;2022-07-06T15:28:42;22.10;93.80
23556;DHT22;11956;53.184;8.578;2022-07-06T15:31:43;22.10;93.70
23556;DHT22;11956;53.184;8.578;2022-07-06T15:34:44;22.00;93.80
23556;DHT22;11956;53.184;8.578;2022-07-06T15:37:45;22.10;94.30
23556;DHT22;11956;53.184;8.578;2022-07-06T15:40:47;22.20;94.30
23556;DHT22;11956;53.184;8.578;2022-07-06T15:43:52;22.40;93.60
23556;DHT22;11956;53.184;8.578;2022-07-06T15:46:53;22.20;94.00
23556;DHT22;11956;53.184;8.578;2022-07-06T15:49:54;22.00;94.50
23556;DHT22;11956;53.184;8.578;2022-07-06T15:52:55;21.80;94.90
23556;DHT22;11956;53.184;8.578;2022-07-06T15:55:58;21.80;94.80
23556;DHT22;11956;53.184;8.578;2022-07-06T15:59:00;21.80;95.40
23556;DHT22;11956;53.184;8.578;2022-07-06T16:02:01;21.70;95.60
23556;DHT22;11956;53.184;8.578;2022-07-06T16:05:02;21.90;95.10
23556;DHT22;11956;53.184;8.578;2022-07-06T16:08:03;21.90;94.90
23556;DHT22;11956;53.184;8.578;2022-07-06T16:11:05;21.80;95.00
23556;DHT22;11956;53.184;8.578;2022-07-06T16:14:06;21.50;95.40
23556;DHT22;11956;53.184;8.578;2022-07-06T16:17:07;21.40;95.60
23556;DHT22;11956;53.184;8.578;2022-07-06T16:20:08;21.30;95.90
23556;DHT22;11956;53.184;8.578;2022-07-06T16:23:10;21.20;96.30
23556;DHT22;11956;53.184;8.578;2022-07-06T16:26:11;21.00;96.90
23556;DHT22;11956;53.184;8.578;2022-07-06T16:29:12;20.90;97.00
23556;DHT22;11956;53.184;8.578;2022-07-06T16:32:13;20.80;96.90
23556;DHT22;11956;53.184;8.578;2022-07-06T16:35:14;20.70;97.00
23556;DHT22;11956;53.184;8.578;2022-07-06T16:38:16;20.70;96.90
23556;DHT22;11956;53.184;8.578;2022-07-06T16:41:18;20.80;97.00
23556;DHT22;11956;53.184;8.578;2022-07-06T16:44:19;20.90;96.70
23556;DHT22;11956;53.184;8.578;2022-07-06T16:47:20;20.80;97.00
23556;DHT22;11956;53.184;8.578;2022-07-06T16:50:21;20.60;97.40
23556;DHT22;11956;53.184;8.578;2022-07-06T16:53:24;20.60;97.30
23556;DHT22;11956;53.184;8.578;2022-07-06T16:56:25;20.80;97.40
23556;DHT22;11956;53.184;8.578;2022-07-06T16:59:26;20.80;97.30
23556;DHT22;11956;53.184;8.578;2022-07-06T17:02:29;20.80;97.60
23556;DHT22;11956;53.184;8.578;2022-07-06T17:05:30;20.60;98.00
23556;DHT22;11956;53.184;8.578;2022-07-06T17:08:31;20.30;98.80
23556;DHT22;11956;53.184;8.578;2022-07-06T17:11:33;20.00;99.50
23556;DHT22;11956;53.184;8.578;2022-07-06T17:14:35;19.80;99.90
23556;DHT22;11956;53.184;8.578;2022-07-06T17:17:37;19.60;99.90
23556;DHT22;11956;53.184;8.578;2022-07-06T17:20:38;19.40;99.90
23556;DHT22;11956;53.184;8.578;2022-07-06T17:23:39;19.30;99.90
23556;DHT22;11956;53.184;8.578;2022-07-06T17:26:40;19.20;99.90
23556;DHT22;11956;53.184;8.578;2022-07-06T17:29:42;19.20;99.90
23556;DHT22;11956;53.184;8.578;2022-07-06T17:32:43;19.30;99.90
23556;DHT22;11956;53.184;8.578;2022-07-06T17:35:44;19.30;99.90
23556;DHT22;11956;53.184;8.578;2022-07-06T17:38:45;19.20;99.90
23556;DHT22;11956;53.184;8.578;2022-07-06T17:41:46;19.30;99.90
23556;DHT22;11956;53.184;8.578;2022-07-06T17:44:47;19.30;99.90
23556;DHT22;11956;53.184;8.578;2022-07-06T17:47:49;19.20;99.90
23556;DHT22;11956;53.184;8.578;2022-07-06T17:50:50;19.20;99.90
23556;DHT22;11956;53.184;8.578;2022-07-06T17:53:51;19.20;99.90
23556;DHT22;11956;53.184;8.578;2022-07-06T17:56:52;19.20;99.90
23556;DHT22;11956;53.184;8.578;2022-07-06T17:59:53;19.10;99.90
23556;DHT22;11956;53.184;8.578;2022-07-06T18:02:54;18.90;99.90
23556;DHT22;11956;53.184;8.578;2022-07-06T18:05:55;18.90;99.90
23556;DHT22;11956;53.184;8.578;2022-07-06T18:08:57;18.80;99.90
23556;DHT22;11956;53.184;8.578;2022-07-06T18:11:58;18.80;99.90
23556;DHT22;11956;53.184;8.578;2022-07-06T18:14:59;18.80;99.90
23556;DHT22;11956;53.184;8.578;2022-07-06T18:18:00;18.90;99.90
23556;DHT22;11956;53.184;8.578;2022-07-06T18:21:01;18.80;99.90
23556;DHT22;11956;53.184;8.578;2022-07-06T18:24:03;18.90;99.90
23556;DHT22;11956;53.184;8.578;2022-07-06T18:27:05;18.90;99.90
23556;DHT22;11956;53.184;8.578;2022-07-06T18:30:06;18.80;99.90
23556;DHT22;11956;53.184;8.578;2022-07-06T18:33:08;18.70;99.90
23556;DHT22;11956;53.184;8.578;2022-07-06T18:36:09;18.70;99.90
23556;DHT22;11956;53.184;8.578;2022-07-06T18:39:10;18.70;99.90
23556;DHT22;11956;53.184;8.578;2022-07-06T18:42:11;18.70;99.90
23556;DHT22;11956;53.184;8.578;2022-07-06T18:45:13;18.70;99.90
23556;DHT22;11956;53.184;8.578;2022-07-06T18:48:14;18.70;99.90
23556;DHT22;11956;53.184;8.578;2022-07-06T18:51:15;18.60;99.90
23556;DHT22;11956;53.184;8.578;2022-07-06T18:54:16;18.50;99.90
23556;DHT22;11956;53.184;8.578;2022-07-06T18:57:17;18.40;99.90
23556;DHT22;11956;53.184;8.578;2022-07-06T19:00:19;18.30;99.90
23556;DHT22;11956;53.184;8.578;2022-07-06T19:03:20;18.30;99.90
23556;DHT22;11956;53.184;8.578;2022-07-06T19:06:21;18.10;99.90
23556;DHT22;11956;53.184;8.578;2022-07-06T19:09:22;17.80;99.90
23556;DHT22;11956;53.184;8.578;2022-07-06T19:12:23;17.70;99.90
23556;DHT22;11956;53.184;8.578;2022-07-06T19:15:24;17.40;99.90
